Aérodrome :
LOGIN :

S'inscrire | Disclaimer

   EN    FR    IT 

 










Légende :    VFR   VFR Marginal   IFR   IFR Intensif   IFR Très Intensif
Visi : 
Plafond : 
>= 8 km
>= 3000ft
5 à 8 km
1000 à 3000 ft
1500m à 5 km
500 à 1000 ft
800 à 1500m
200 à 500 ft
< 800m
< 200 ft
Symboles :   Orages  Brouillard  Fortes neiges  Fortes précipitations  Vent > 20 kt
SIGMETs :   Divers  Orages  Givrage  Turbulence  Onde Orograph.  Cendres Volcan.







- Altitude de l'aérodrome : 195 ft
- Voir les cartes d'approche


LFMY - Salon de Provence

DERNIER METAR :
  • 230800Z AUTO 30005KT 250V340 9999 // NSC 26/21 Q1019

METARs EXPIRÉS :
  • 230730Z AUTO VRB03KT 9999 // FEW011 25/22 Q1019
  • 230700Z AUTO VRB02KT 9999 // FEW011 SCT130 25/21 Q1019
  • 230630Z AUTO VRB01KT 9999 // NSC 24/20 Q1019
  • 230600Z AUTO 00000KT 9999 // NSC 23/20 Q1018
  • 230530Z AUTO VRB02KT 9999 // NSC 21/19 Q1018

TAF TAF LFMY
Valide du 23 à 03h jusqu'au 24 à 03h UTC


230200Z 2303/2403 VRB02KT 9999 FEW010
FM230800 30008KT CAVOK
BECMG 2322/2324 VRB02KT
Pas de NOTAMs connus pour ce terrain.



MET'MAP, la Météo Aéronautique d'un coup d'oeil ! - Copyright ORBIFLY Décembre 2007 - Disclaimer

ORBIFLY MET'MAP TEAM :

Programmation & Développement : Alexandra Zaïnal
Conception & Développement : Baudouin d'Aumeries
Co-Programmation & Développement : Marc-Olivier Méhu
Soutien technique & logistique : Manuel Goepfert

Contact : metmap@orbifly.com




SOURCES & CREDITS :

   NOAA